DXX0645 EKCH-LIRF
Flight info
| Callsign | DXX0645 |
|---|---|
| Flight time | 2h 6m |
| Altitude | 33000 |
| Route | SALLO M44 KOGIM M602 USEDU DCT ADLIR/N0453F350 DCT OSKAN DCT MAREM DCT APRAQ DCT NIPEL DCT GIRDA/N0453F340 DCT BAXON/N0453F350 DCT UNUMU DCT ETPOK DCT RITEB |
| Aircraft | A321/M-SDE3FGHIRWY/LB1 |
Departure
| Time | 2026-05-05 23:49 |
|---|---|
| Airport | Copenhagen Kastrup Airport (EKCH) |
Arrival
| Time | 2026-05-06 01:56 |
|---|---|
| Airport | Rome–Fiumicino Leonardo da Vinci International Airport (LIRF) |
| Time | Latitude | Longitude | Altitude | Speed | Heading |
|---|---|---|---|---|---|
| 2026-05-05 23:18 | 55.62645 | 12.64565 | 25 ft | 0 kts | 281° |
| 2026-05-05 23:37 | 55.62643 | 12.64583 | 26 ft | 3 kts | 281° |
| 2026-05-05 23:37 | 55.62638 | 12.64629 | 26 ft | 3 kts | 281° |
| 2026-05-05 23:37 | 55.62640 | 12.64669 | 26 ft | 3 kts | 238° |
| 2026-05-05 23:38 | 55.62645 | 12.64681 | 26 ft | 0 kts | 222° |
| 2026-05-05 23:42 | 55.62645 | 12.64680 | 26 ft | 0 kts | 222° |
| 2026-05-05 23:42 | 55.62608 | 12.64658 | 26 ft | 11 kts | 186° |
| 2026-05-05 23:43 | 55.62500 | 12.64659 | 26 ft | 16 kts | 175° |
| 2026-05-05 23:43 | 55.62386 | 12.64674 | 26 ft | 16 kts | 182° |
| 2026-05-05 23:43 | 55.62295 | 12.64569 | 25 ft | 16 kts | 240° |
| 2026-05-05 23:43 | 55.62232 | 12.64407 | 25 ft | 16 kts | 198° |
| 2026-05-05 23:44 | 55.62122 | 12.64430 | 25 ft | 16 kts | 170° |
| 2026-05-05 23:44 | 55.62014 | 12.64463 | 25 ft | 15 kts | 171° |
| 2026-05-05 23:44 | 55.61905 | 12.64492 | 26 ft | 15 kts | 172° |
| 2026-05-05 23:44 | 55.61800 | 12.64527 | 27 ft | 15 kts | 168° |
| 2026-05-05 23:45 | 55.61697 | 12.64553 | 26 ft | 15 kts | 187° |
| 2026-05-05 23:45 | 55.61600 | 12.64469 | 26 ft | 16 kts | 213° |
| 2026-05-05 23:45 | 55.61507 | 12.64366 | 27 ft | 15 kts | 212° |
| 2026-05-05 23:45 | 55.61417 | 12.64270 | 27 ft | 14 kts | 211° |
| 2026-05-05 23:46 | 55.61328 | 12.64169 | 27 ft | 15 kts | 214° |
| 2026-05-05 23:46 | 55.61238 | 12.64062 | 27 ft | 15 kts | 213° |
| 2026-05-05 23:46 | 55.61135 | 12.63945 | 25 ft | 19 kts | 212° |
| 2026-05-05 23:46 | 55.61018 | 12.63815 | 24 ft | 20 kts | 213° |
| 2026-05-05 23:47 | 55.60898 | 12.63673 | 23 ft | 21 kts | 215° |
| 2026-05-05 23:47 | 55.60767 | 12.63643 | 22 ft | 16 kts | 143° |
| 2026-05-05 23:47 | 55.60744 | 12.63687 | 22 ft | 0 kts | 130° |
| 2026-05-05 23:47 | 55.60738 | 12.63698 | 22 ft | 2 kts | 128° |
| 2026-05-05 23:48 | 55.60722 | 12.63738 | 22 ft | 5 kts | 127° |
| 2026-05-05 23:48 | 55.60706 | 12.63888 | 21 ft | 20 kts | 69° |
| 2026-05-05 23:48 | 55.60904 | 12.64213 | 23 ft | 73 kts | 42° |
| 2026-05-05 23:48 | 55.61475 | 12.65097 | 26 ft | 145 kts | 42° |
| 2026-05-05 23:49 | 55.62362 | 12.66518 | 272 ft | 182 kts | 39° |
| 2026-05-05 23:49 | 55.63193 | 12.67966 | 1217 ft | 167 kts | 43° |
| 2026-05-05 23:49 | 55.63982 | 12.69460 | 1904 ft | 169 kts | 37° |
| 2026-05-05 23:49 | 55.64897 | 12.70800 | 2383 ft | 176 kts | 33° |
| 2026-05-05 23:50 | 55.65898 | 12.72189 | 2639 ft | 188 kts | 33° |
| 2026-05-05 23:50 | 55.66951 | 12.73674 | 2890 ft | 201 kts | 38° |
| 2026-05-05 23:50 | 55.67645 | 12.75899 | 3094 ft | 222 kts | 80° |
| 2026-05-05 23:50 | 55.67315 | 12.78589 | 3315 ft | 234 kts | 123° |
| 2026-05-05 23:51 | 55.66056 | 12.80331 | 3568 ft | 235 kts | 166° |
| 2026-05-05 23:51 | 55.64434 | 12.80460 | 3807 ft | 242 kts | 192° |
| 2026-05-05 23:51 | 55.62711 | 12.80047 | 4108 ft | 258 kts | 192° |
| 2026-05-05 23:51 | 55.60891 | 12.79740 | 4543 ft | 270 kts | 188° |
| 2026-05-05 23:52 | 55.58992 | 12.79612 | 5210 ft | 273 kts | 186° |
| 2026-05-05 23:52 | 55.57113 | 12.79606 | 5883 ft | 275 kts | 184° |
| 2026-05-05 23:52 | 55.55204 | 12.79671 | 6549 ft | 277 kts | 184° |
| 2026-05-05 23:52 | 55.53298 | 12.79772 | 7207 ft | 278 kts | 183° |
| 2026-05-05 23:53 | 55.51354 | 12.79894 | 7863 ft | 279 kts | 183° |
| 2026-05-05 23:53 | 55.49424 | 12.80025 | 8500 ft | 281 kts | 183° |
| 2026-05-05 23:53 | 55.47471 | 12.80161 | 9141 ft | 283 kts | 183° |
| 2026-05-05 23:53 | 55.45517 | 12.80297 | 9724 ft | 284 kts | 184° |
| 2026-05-05 23:54 | 55.43540 | 12.80438 | 10275 ft | 288 kts | 184° |
| 2026-05-05 23:54 | 55.41489 | 12.80576 | 10554 ft | 302 kts | 184° |
| 2026-05-05 23:54 | 55.39364 | 12.80720 | 10815 ft | 315 kts | 183° |
| 2026-05-05 23:54 | 55.37144 | 12.80875 | 11075 ft | 328 kts | 183° |
| 2026-05-05 23:55 | 55.34808 | 12.81175 | 11316 ft | 346 kts | 175° |
| 2026-05-05 23:55 | 55.32463 | 12.82502 | 11554 ft | 367 kts | 159° |
| 2026-05-05 23:55 | 55.30280 | 12.85003 | 11790 ft | 385 kts | 147° |
| 2026-05-05 23:55 | 55.28172 | 12.87969 | 12204 ft | 391 kts | 146° |
| 2026-05-05 23:56 | 55.26063 | 12.90990 | 12713 ft | 394 kts | 146° |
| 2026-05-05 23:56 | 55.23939 | 12.94013 | 13220 ft | 396 kts | 146° |
| 2026-05-05 23:56 | 55.21785 | 12.97052 | 13720 ft | 398 kts | 146° |
| 2026-05-05 23:56 | 55.19639 | 13.00056 | 14204 ft | 401 kts | 146° |
| 2026-05-05 23:57 | 55.17445 | 13.03117 | 14667 ft | 404 kts | 146° |
| 2026-05-05 23:57 | 55.15261 | 13.06153 | 15134 ft | 406 kts | 147° |
| 2026-05-05 23:57 | 55.13047 | 13.09226 | 15625 ft | 408 kts | 147° |
| 2026-05-05 23:57 | 55.10828 | 13.12298 | 16074 ft | 410 kts | 147° |
| 2026-05-05 23:58 | 55.08593 | 13.15388 | 16511 ft | 412 kts | 147° |
| 2026-05-05 23:58 | 55.06360 | 13.18469 | 16954 ft | 414 kts | 147° |
| 2026-05-05 23:58 | 55.04092 | 13.21593 | 17386 ft | 416 kts | 147° |
| 2026-05-05 23:58 | 55.01806 | 13.24740 | 17841 ft | 418 kts | 147° |
| 2026-05-05 23:59 | 54.99535 | 13.27860 | 18255 ft | 420 kts | 147° |
| 2026-05-05 23:59 | 54.97269 | 13.30968 | 18662 ft | 421 kts | 147° |
| 2026-05-05 23:59 | 54.94961 | 13.34123 | 19039 ft | 424 kts | 147° |
| 2026-05-05 23:59 | 54.92539 | 13.36925 | 19397 ft | 419 kts | 157° |
| 2026-05-06 00:00 | 54.89887 | 13.38876 | 19791 ft | 412 kts | 168° |
| 2026-05-06 00:00 | 54.87118 | 13.39963 | 20177 ft | 408 kts | 176° |
| 2026-05-06 00:00 | 54.84329 | 13.40713 | 20546 ft | 409 kts | 177° |
| 2026-05-06 00:00 | 54.81481 | 13.41440 | 20881 ft | 412 kts | 177° |
| 2026-05-06 00:01 | 54.78670 | 13.42166 | 21209 ft | 414 kts | 177° |
| 2026-05-06 00:01 | 54.75812 | 13.42916 | 21539 ft | 416 kts | 176° |
| 2026-05-06 00:01 | 54.72937 | 13.43684 | 21901 ft | 418 kts | 176° |
| 2026-05-06 00:01 | 54.70071 | 13.44451 | 22242 ft | 419 kts | 176° |
| 2026-05-06 00:02 | 54.67228 | 13.45213 | 22589 ft | 421 kts | 176° |
| 2026-05-06 00:02 | 54.64317 | 13.45990 | 22890 ft | 423 kts | 176° |
| 2026-05-06 00:02 | 54.61429 | 13.46763 | 23154 ft | 425 kts | 177° |
| 2026-05-06 00:02 | 54.58511 | 13.47542 | 23450 ft | 426 kts | 177° |
| 2026-05-06 00:03 | 54.55580 | 13.48322 | 23769 ft | 428 kts | 177° |
| 2026-05-06 00:03 | 54.52631 | 13.49107 | 24031 ft | 430 kts | 177° |
| 2026-05-06 00:03 | 54.49699 | 13.49879 | 24283 ft | 432 kts | 177° |
| 2026-05-06 00:03 | 54.46725 | 13.50637 | 24544 ft | 434 kts | 177° |
| 2026-05-06 00:04 | 54.43722 | 13.51393 | 24774 ft | 436 kts | 177° |
| 2026-05-06 00:04 | 54.40747 | 13.52141 | 25011 ft | 438 kts | 177° |
| 2026-05-06 00:04 | 54.37730 | 13.52901 | 25271 ft | 439 kts | 178° |
| 2026-05-06 00:04 | 54.34711 | 13.53760 | 25487 ft | 445 kts | 174° |
| 2026-05-06 00:05 | 54.28756 | 13.56988 | 25966 ft | 458 kts | 162° |
| 2026-05-06 00:05 | 54.25854 | 13.59348 | 26284 ft | 460 kts | 159° |
| 2026-05-06 00:05 | 54.23011 | 13.61791 | 26629 ft | 460 kts | 159° |
| 2026-05-06 00:06 | 54.20200 | 13.64227 | 26969 ft | 458 kts | 159° |
| 2026-05-06 00:06 | 54.17338 | 13.66690 | 27260 ft | 458 kts | 160° |
| 2026-05-06 00:06 | 54.14496 | 13.69120 | 27545 ft | 458 kts | 160° |
| 2026-05-06 00:06 | 54.11734 | 13.71749 | 27800 ft | 463 kts | 155° |
| 2026-05-06 00:07 | 54.09069 | 13.74859 | 28063 ft | 468 kts | 149° |
| 2026-05-06 00:07 | 54.06570 | 13.78416 | 28356 ft | 471 kts | 143° |
| 2026-05-06 00:07 | 54.04203 | 13.82210 | 28689 ft | 471 kts | 142° |
| 2026-05-06 00:07 | 54.01846 | 13.86078 | 29008 ft | 469 kts | 141° |
| 2026-05-06 00:08 | 53.99486 | 13.89874 | 29309 ft | 466 kts | 145° |
| 2026-05-06 00:08 | 53.96883 | 13.92876 | 29515 ft | 455 kts | 159° |
| 2026-05-06 00:08 | 53.93951 | 13.94758 | 29767 ft | 443 kts | 172° |
| 2026-05-06 00:08 | 53.90951 | 13.95468 | 30007 ft | 432 kts | 184° |
| 2026-05-06 00:09 | 53.88026 | 13.95141 | 30241 ft | 425 kts | 193° |
| 2026-05-06 00:09 | 53.85099 | 13.94461 | 30482 ft | 424 kts | 194° |
| 2026-05-06 00:09 | 53.82170 | 13.93753 | 30679 ft | 425 kts | 194° |
| 2026-05-06 00:09 | 53.79259 | 13.93057 | 30883 ft | 425 kts | 193° |
| 2026-05-06 00:10 | 53.76363 | 13.92375 | 31134 ft | 424 kts | 193° |
| 2026-05-06 00:10 | 53.73433 | 13.91693 | 31352 ft | 424 kts | 193° |
| 2026-05-06 00:10 | 53.70502 | 13.91016 | 31552 ft | 424 kts | 193° |
| 2026-05-06 00:10 | 53.67617 | 13.90357 | 31762 ft | 424 kts | 193° |
| 2026-05-06 00:11 | 53.64681 | 13.89687 | 31934 ft | 424 kts | 193° |
| 2026-05-06 00:11 | 53.61787 | 13.89029 | 32086 ft | 425 kts | 193° |
| 2026-05-06 00:11 | 53.58868 | 13.88368 | 32248 ft | 425 kts | 193° |
| 2026-05-06 00:11 | 53.55943 | 13.87707 | 32448 ft | 424 kts | 193° |
| 2026-05-06 00:12 | 53.53021 | 13.87048 | 32636 ft | 424 kts | 193° |
| 2026-05-06 00:12 | 53.50109 | 13.86394 | 32793 ft | 424 kts | 193° |
| 2026-05-06 00:12 | 53.47172 | 13.85731 | 32896 ft | 425 kts | 193° |
| 2026-05-06 00:13 | 53.41356 | 13.84424 | 32907 ft | 425 kts | 193° |
| 2026-05-06 00:13 | 53.35500 | 13.83113 | 32908 ft | 425 kts | 193° |
| 2026-05-06 00:14 | 53.29672 | 13.81813 | 32912 ft | 425 kts | 193° |
| 2026-05-06 00:14 | 53.23846 | 13.80514 | 32917 ft | 425 kts | 193° |
| 2026-05-06 00:15 | 53.18001 | 13.79215 | 32917 ft | 426 kts | 193° |
| 2026-05-06 00:15 | 53.12104 | 13.77909 | 32925 ft | 425 kts | 192° |
| 2026-05-06 00:16 | 53.06285 | 13.76624 | 32930 ft | 426 kts | 192° |
| 2026-05-06 00:16 | 53.00428 | 13.75333 | 32936 ft | 425 kts | 192° |
| 2026-05-06 00:17 | 52.94586 | 13.74051 | 32937 ft | 425 kts | 192° |
| 2026-05-06 00:17 | 52.88728 | 13.72768 | 32929 ft | 426 kts | 193° |
| 2026-05-06 00:18 | 52.82846 | 13.71481 | 32923 ft | 426 kts | 193° |
| 2026-05-06 00:18 | 52.76993 | 13.70205 | 32927 ft | 427 kts | 192° |
| 2026-05-06 00:19 | 52.71092 | 13.68922 | 32921 ft | 428 kts | 192° |
| 2026-05-06 00:19 | 52.65222 | 13.67651 | 32928 ft | 428 kts | 192° |
| 2026-05-06 00:20 | 52.59312 | 13.66373 | 32924 ft | 428 kts | 192° |
| 2026-05-06 00:20 | 52.53440 | 13.65107 | 32931 ft | 429 kts | 192° |
| 2026-05-06 00:21 | 52.47519 | 13.63835 | 32935 ft | 429 kts | 192° |
| 2026-05-06 00:21 | 52.41605 | 13.62641 | 32938 ft | 431 kts | 190° |
| 2026-05-06 00:22 | 52.35606 | 13.62265 | 32936 ft | 434 kts | 185° |
| 2026-05-06 00:22 | 52.29602 | 13.62312 | 32937 ft | 434 kts | 185° |
| 2026-05-06 00:23 | 52.23575 | 13.62338 | 32939 ft | 436 kts | 185° |
| 2026-05-06 00:23 | 52.17505 | 13.62371 | 32933 ft | 435 kts | 185° |
| 2026-05-06 00:24 | 52.11506 | 13.62403 | 32931 ft | 436 kts | 185° |
| 2026-05-06 00:24 | 52.05450 | 13.62441 | 32935 ft | 436 kts | 185° |
| 2026-05-06 00:25 | 51.99396 | 13.62475 | 32934 ft | 437 kts | 185° |
| 2026-05-06 00:25 | 51.93336 | 13.62512 | 32941 ft | 437 kts | 185° |
| 2026-05-06 00:26 | 51.87255 | 13.62550 | 32941 ft | 437 kts | 185° |
| 2026-05-06 00:26 | 51.81200 | 13.62588 | 32945 ft | 438 kts | 185° |
| 2026-05-06 00:27 | 51.75116 | 13.62623 | 32948 ft | 438 kts | 184° |
| 2026-05-06 00:27 | 51.69044 | 13.62661 | 32952 ft | 438 kts | 185° |
| 2026-05-06 00:28 | 51.62964 | 13.62698 | 32947 ft | 439 kts | 184° |
| 2026-05-06 00:28 | 51.56851 | 13.62733 | 32955 ft | 439 kts | 184° |
| 2026-05-06 00:29 | 51.50731 | 13.62770 | 32952 ft | 439 kts | 184° |
| 2026-05-06 00:29 | 51.44663 | 13.62804 | 32953 ft | 440 kts | 184° |
| 2026-05-06 00:30 | 51.38550 | 13.62814 | 32954 ft | 440 kts | 184° |
| 2026-05-06 00:30 | 51.32454 | 13.62821 | 32957 ft | 440 kts | 184° |
| 2026-05-06 00:31 | 51.26318 | 13.62830 | 32964 ft | 441 kts | 184° |
| 2026-05-06 00:31 | 51.20196 | 13.62839 | 32971 ft | 441 kts | 184° |
| 2026-05-06 00:32 | 51.14090 | 13.62847 | 32973 ft | 442 kts | 184° |
| 2026-05-06 00:32 | 51.07916 | 13.62857 | 32979 ft | 442 kts | 184° |
| 2026-05-06 00:33 | 51.01798 | 13.62866 | 32979 ft | 442 kts | 184° |
| 2026-05-06 00:33 | 50.95674 | 13.62876 | 32981 ft | 442 kts | 184° |
| 2026-05-06 00:34 | 50.89533 | 13.62884 | 32986 ft | 443 kts | 184° |
| 2026-05-06 00:34 | 50.83385 | 13.62894 | 32987 ft | 442 kts | 184° |
| 2026-05-06 00:35 | 50.77266 | 13.62997 | 32991 ft | 444 kts | 181° |
| 2026-05-06 00:35 | 50.71106 | 13.63967 | 32993 ft | 448 kts | 175° |
| 2026-05-06 00:36 | 50.64975 | 13.66022 | 32987 ft | 452 kts | 168° |
| 2026-05-06 00:36 | 50.58975 | 13.68840 | 32988 ft | 453 kts | 167° |
| 2026-05-06 00:37 | 50.52959 | 13.71670 | 32986 ft | 453 kts | 167° |
| 2026-05-06 00:37 | 50.46927 | 13.74499 | 32981 ft | 453 kts | 167° |
| 2026-05-06 00:38 | 50.40892 | 13.77321 | 32979 ft | 453 kts | 167° |
| 2026-05-06 00:38 | 50.34847 | 13.80141 | 32978 ft | 454 kts | 167° |
| 2026-05-06 00:39 | 50.28809 | 13.82951 | 32980 ft | 454 kts | 167° |
| 2026-05-06 00:39 | 50.22779 | 13.85749 | 32981 ft | 454 kts | 167° |
| 2026-05-06 00:40 | 50.16727 | 13.88551 | 32984 ft | 454 kts | 166° |
| 2026-05-06 00:40 | 50.10684 | 13.91340 | 32981 ft | 455 kts | 166° |
| 2026-05-06 00:41 | 50.04656 | 13.94116 | 32981 ft | 455 kts | 166° |
| 2026-05-06 00:41 | 49.98605 | 13.96895 | 32980 ft | 455 kts | 166° |
| 2026-05-06 00:42 | 49.92536 | 13.99674 | 32979 ft | 456 kts | 166° |
| 2026-05-06 00:42 | 49.86437 | 14.02463 | 32980 ft | 456 kts | 166° |
| 2026-05-06 00:43 | 49.80369 | 14.05229 | 32987 ft | 456 kts | 166° |
| 2026-05-06 00:43 | 49.74315 | 14.07981 | 32992 ft | 456 kts | 166° |
| 2026-05-06 00:44 | 49.68189 | 14.10387 | 32991 ft | 454 kts | 172° |
| 2026-05-06 00:44 | 49.61992 | 14.11734 | 32995 ft | 452 kts | 178° |
| 2026-05-06 00:45 | 49.55694 | 14.12010 | 32997 ft | 450 kts | 184° |
| 2026-05-06 00:45 | 49.49485 | 14.11803 | 32995 ft | 451 kts | 184° |
| 2026-05-06 00:46 | 49.43199 | 14.11613 | 33001 ft | 452 kts | 184° |
| 2026-05-06 00:46 | 49.36916 | 14.11426 | 32996 ft | 452 kts | 184° |
| 2026-05-06 00:47 | 49.30654 | 14.11239 | 32992 ft | 453 kts | 184° |
| 2026-05-06 00:47 | 49.24376 | 14.11052 | 32989 ft | 452 kts | 184° |
| 2026-05-06 00:48 | 49.18086 | 14.10865 | 32993 ft | 452 kts | 184° |
| 2026-05-06 00:48 | 49.11814 | 14.10681 | 32997 ft | 453 kts | 184° |
| 2026-05-06 00:49 | 49.05558 | 14.10496 | 33001 ft | 453 kts | 184° |
| 2026-05-06 00:49 | 48.99241 | 14.10309 | 33004 ft | 454 kts | 184° |
| 2026-05-06 00:50 | 48.92938 | 14.10124 | 33009 ft | 455 kts | 184° |
| 2026-05-06 00:50 | 48.86595 | 14.09936 | 33008 ft | 456 kts | 184° |
| 2026-05-06 00:51 | 48.80250 | 14.09750 | 33012 ft | 456 kts | 184° |
| 2026-05-06 00:51 | 48.73903 | 14.09564 | 33013 ft | 455 kts | 184° |
| 2026-05-06 00:52 | 48.67619 | 14.09382 | 33012 ft | 455 kts | 184° |
| 2026-05-06 00:52 | 48.61258 | 14.09198 | 33011 ft | 455 kts | 184° |
| 2026-05-06 00:53 | 48.54939 | 14.09014 | 33009 ft | 456 kts | 184° |
| 2026-05-06 00:53 | 48.48598 | 14.08833 | 33010 ft | 457 kts | 184° |
| 2026-05-06 00:54 | 48.42288 | 14.08652 | 33008 ft | 457 kts | 184° |
| 2026-05-06 00:54 | 48.35942 | 14.08468 | 33008 ft | 457 kts | 184° |
| 2026-05-06 00:55 | 48.29570 | 14.08284 | 33007 ft | 457 kts | 184° |
| 2026-05-06 00:55 | 48.23210 | 14.08100 | 33005 ft | 457 kts | 183° |
| 2026-05-06 00:56 | 48.16901 | 14.07920 | 33005 ft | 458 kts | 183° |
| 2026-05-06 00:56 | 48.10547 | 14.07740 | 33005 ft | 458 kts | 183° |
| 2026-05-06 00:57 | 48.04179 | 14.07561 | 33005 ft | 458 kts | 183° |
| 2026-05-06 00:57 | 47.97796 | 14.07380 | 33007 ft | 459 kts | 183° |
| 2026-05-06 00:58 | 47.91417 | 14.07202 | 33005 ft | 460 kts | 184° |
| 2026-05-06 00:58 | 47.85011 | 14.07020 | 33021 ft | 459 kts | 184° |
| 2026-05-06 00:59 | 47.78675 | 14.06841 | 33028 ft | 459 kts | 183° |
| 2026-05-06 00:59 | 47.72296 | 14.06660 | 33043 ft | 459 kts | 183° |
| 2026-05-06 01:00 | 47.65939 | 14.06482 | 33045 ft | 459 kts | 183° |
| 2026-05-06 01:00 | 47.59577 | 14.06306 | 33056 ft | 459 kts | 183° |
| 2026-05-06 01:01 | 47.53192 | 14.06129 | 33068 ft | 459 kts | 183° |
| 2026-05-06 01:01 | 47.46789 | 14.05952 | 33092 ft | 459 kts | 183° |
| 2026-05-06 01:02 | 47.40427 | 14.05776 | 33103 ft | 458 kts | 183° |
| 2026-05-06 01:02 | 47.34099 | 14.05599 | 33114 ft | 458 kts | 183° |
| 2026-05-06 01:03 | 47.27928 | 14.05429 | 33121 ft | 458 kts | 183° |
| 2026-05-06 01:03 | 47.21513 | 14.05251 | 33124 ft | 465 kts | 183° |
| 2026-05-06 01:04 | 47.15016 | 14.05072 | 33124 ft | 472 kts | 183° |
| 2026-05-06 01:04 | 47.08402 | 14.04891 | 33130 ft | 478 kts | 183° |
| 2026-05-06 01:05 | 47.01723 | 14.04709 | 33136 ft | 483 kts | 183° |
| 2026-05-06 01:05 | 46.95045 | 14.04529 | 33218 ft | 484 kts | 183° |
| 2026-05-06 01:05 | 46.91671 | 14.04442 | 33414 ft | 476 kts | 183° |
| 2026-05-06 01:06 | 46.88377 | 14.04363 | 33507 ft | 467 kts | 183° |
| 2026-05-06 01:06 | 46.85209 | 14.04283 | 33496 ft | 454 kts | 183° |
| 2026-05-06 01:06 | 46.82096 | 14.04193 | 33500 ft | 451 kts | 183° |
| 2026-05-06 01:07 | 46.75781 | 14.04009 | 33502 ft | 457 kts | 183° |
| 2026-05-06 01:07 | 46.69428 | 14.03835 | 33505 ft | 458 kts | 183° |
| 2026-05-06 01:08 | 46.63092 | 14.03665 | 33507 ft | 457 kts | 183° |
| 2026-05-06 01:08 | 46.56735 | 14.03495 | 33510 ft | 458 kts | 183° |
| 2026-05-06 01:09 | 46.50356 | 14.03341 | 33512 ft | 459 kts | 182° |
| 2026-05-06 01:09 | 46.43978 | 14.03787 | 33516 ft | 460 kts | 178° |
| 2026-05-06 01:10 | 46.37643 | 14.04432 | 33519 ft | 459 kts | 178° |
| 2026-05-06 01:10 | 46.31239 | 14.05080 | 33521 ft | 459 kts | 178° |
| 2026-05-06 01:11 | 46.24891 | 14.05721 | 33524 ft | 459 kts | 178° |
| 2026-05-06 01:11 | 46.18549 | 14.06361 | 33527 ft | 459 kts | 178° |
| 2026-05-06 01:12 | 46.12176 | 14.07002 | 33530 ft | 459 kts | 178° |
| 2026-05-06 01:12 | 46.05816 | 14.07639 | 33533 ft | 459 kts | 178° |
| 2026-05-06 01:13 | 45.99472 | 14.08274 | 33536 ft | 460 kts | 178° |
| 2026-05-06 01:13 | 45.93093 | 14.08912 | 33538 ft | 460 kts | 178° |
| 2026-05-06 01:14 | 45.83520 | 14.09867 | 33543 ft | 460 kts | 178° |
| 2026-05-06 01:14 | 45.77140 | 14.10500 | 33546 ft | 460 kts | 178° |
| 2026-05-06 01:15 | 45.70787 | 14.11130 | 33549 ft | 460 kts | 178° |
| 2026-05-06 01:15 | 45.64404 | 14.11761 | 33551 ft | 460 kts | 178° |
| 2026-05-06 01:16 | 45.58043 | 14.12389 | 33554 ft | 461 kts | 178° |
| 2026-05-06 01:16 | 45.51647 | 14.12402 | 33555 ft | 458 kts | 187° |
| 2026-05-06 01:17 | 45.45385 | 14.10981 | 33558 ft | 455 kts | 196° |
| 2026-05-06 01:17 | 45.39409 | 14.08187 | 33561 ft | 451 kts | 205° |
| 2026-05-06 01:18 | 45.33709 | 14.04541 | 33565 ft | 450 kts | 207° |
| 2026-05-06 01:18 | 45.28034 | 14.00870 | 33568 ft | 451 kts | 207° |
| 2026-05-06 01:19 | 45.22336 | 13.97208 | 33572 ft | 450 kts | 207° |
| 2026-05-06 01:19 | 45.16616 | 13.93549 | 33575 ft | 450 kts | 207° |
| 2026-05-06 01:20 | 45.10901 | 13.89901 | 33578 ft | 450 kts | 207° |
| 2026-05-06 01:20 | 45.05217 | 13.86283 | 33581 ft | 449 kts | 207° |
| 2026-05-06 01:21 | 44.99523 | 13.82664 | 33584 ft | 448 kts | 207° |
| 2026-05-06 01:21 | 44.93845 | 13.79066 | 33588 ft | 448 kts | 207° |
| 2026-05-06 01:22 | 44.88172 | 13.75477 | 33590 ft | 448 kts | 207° |
| 2026-05-06 01:22 | 44.82488 | 13.71889 | 33594 ft | 449 kts | 207° |
| 2026-05-06 01:23 | 44.76786 | 13.68298 | 33597 ft | 448 kts | 207° |
| 2026-05-06 01:23 | 44.71100 | 13.64726 | 33601 ft | 448 kts | 207° |
| 2026-05-06 01:24 | 44.65419 | 13.61165 | 33604 ft | 447 kts | 207° |
| 2026-05-06 01:24 | 44.59736 | 13.57607 | 33608 ft | 447 kts | 207° |
| 2026-05-06 01:25 | 44.54098 | 13.54087 | 33611 ft | 447 kts | 207° |
| 2026-05-06 01:25 | 44.48418 | 13.50547 | 33614 ft | 447 kts | 207° |
| 2026-05-06 01:26 | 44.42758 | 13.47012 | 33617 ft | 447 kts | 208° |
| 2026-05-06 01:26 | 44.37275 | 13.43013 | 33621 ft | 446 kts | 211° |
| 2026-05-06 01:27 | 44.31829 | 13.38871 | 33624 ft | 446 kts | 211° |
| 2026-05-06 01:27 | 44.26364 | 13.34727 | 33628 ft | 445 kts | 211° |
| 2026-05-06 01:28 | 44.20934 | 13.30615 | 33631 ft | 445 kts | 211° |
| 2026-05-06 01:28 | 44.15508 | 13.26515 | 33634 ft | 444 kts | 211° |
| 2026-05-06 01:29 | 44.10064 | 13.22409 | 33637 ft | 445 kts | 211° |
| 2026-05-06 01:29 | 44.04653 | 13.18337 | 33639 ft | 444 kts | 210° |
| 2026-05-06 01:30 | 43.99220 | 13.14256 | 33641 ft | 445 kts | 210° |
| 2026-05-06 01:30 | 43.93757 | 13.10164 | 33641 ft | 446 kts | 210° |
| 2026-05-06 01:31 | 43.88303 | 13.06087 | 33642 ft | 445 kts | 211° |
| 2026-05-06 01:31 | 43.82892 | 13.02048 | 33643 ft | 444 kts | 210° |
| 2026-05-06 01:32 | 43.77460 | 12.98001 | 33646 ft | 443 kts | 210° |
| 2026-05-06 01:32 | 43.72037 | 12.93971 | 33645 ft | 443 kts | 210° |
| 2026-05-06 01:33 | 43.66625 | 12.89957 | 33647 ft | 444 kts | 210° |
| 2026-05-06 01:33 | 43.61198 | 12.85940 | 33651 ft | 444 kts | 210° |
| 2026-05-06 01:34 | 43.55754 | 12.81921 | 33651 ft | 444 kts | 210° |
| 2026-05-06 01:34 | 43.50304 | 12.77903 | 33649 ft | 444 kts | 210° |
| 2026-05-06 01:35 | 43.44891 | 12.73920 | 33651 ft | 444 kts | 210° |
| 2026-05-06 01:35 | 43.39552 | 12.69693 | 33653 ft | 442 kts | 213° |
| 2026-05-06 01:36 | 43.34329 | 12.65280 | 33653 ft | 442 kts | 213° |
| 2026-05-06 01:36 | 43.29103 | 12.60875 | 33650 ft | 441 kts | 213° |
| 2026-05-06 01:37 | 43.23872 | 12.56474 | 33501 ft | 443 kts | 213° |
| 2026-05-06 01:37 | 43.21263 | 12.54282 | 32957 ft | 443 kts | 213° |
| 2026-05-06 01:37 | 43.18646 | 12.52085 | 32316 ft | 442 kts | 214° |
| 2026-05-06 01:38 | 43.16027 | 12.49888 | 31677 ft | 439 kts | 214° |
| 2026-05-06 01:38 | 43.13456 | 12.47732 | 31051 ft | 437 kts | 213° |
| 2026-05-06 01:38 | 43.10862 | 12.45561 | 30412 ft | 436 kts | 214° |
| 2026-05-06 01:38 | 43.08270 | 12.43394 | 29784 ft | 438 kts | 214° |
| 2026-05-06 01:39 | 43.05693 | 12.41238 | 29162 ft | 439 kts | 213° |
| 2026-05-06 01:39 | 43.03090 | 12.39065 | 28535 ft | 441 kts | 213° |
| 2026-05-06 01:39 | 43.00464 | 12.36872 | 27916 ft | 443 kts | 213° |
| 2026-05-06 01:39 | 42.97825 | 12.34674 | 27302 ft | 445 kts | 213° |
| 2026-05-06 01:40 | 42.95219 | 12.32504 | 26702 ft | 447 kts | 213° |
| 2026-05-06 01:40 | 42.92553 | 12.30285 | 26089 ft | 449 kts | 212° |
| 2026-05-06 01:40 | 42.89878 | 12.28062 | 25479 ft | 447 kts | 212° |
| 2026-05-06 01:40 | 42.87241 | 12.25876 | 24873 ft | 443 kts | 212° |
| 2026-05-06 01:41 | 42.84637 | 12.23720 | 24264 ft | 438 kts | 212° |
| 2026-05-06 01:41 | 42.82070 | 12.21595 | 23661 ft | 434 kts | 212° |
| 2026-05-06 01:41 | 42.79519 | 12.19489 | 23073 ft | 430 kts | 213° |
| 2026-05-06 01:41 | 42.76899 | 12.17532 | 22473 ft | 428 kts | 204° |
| 2026-05-06 01:42 | 42.74038 | 12.16553 | 21898 ft | 427 kts | 188° |
| 2026-05-06 01:42 | 42.71106 | 12.16458 | 21323 ft | 425 kts | 176° |
| 2026-05-06 01:42 | 42.68272 | 12.17549 | 20737 ft | 426 kts | 156° |
| 2026-05-06 01:42 | 42.65714 | 12.19567 | 20171 ft | 424 kts | 150° |
| 2026-05-06 01:43 | 42.63197 | 12.21637 | 19602 ft | 421 kts | 150° |
| 2026-05-06 01:43 | 42.60714 | 12.23661 | 19020 ft | 418 kts | 150° |
| 2026-05-06 01:43 | 42.58223 | 12.25671 | 18445 ft | 416 kts | 150° |
| 2026-05-06 01:43 | 42.55767 | 12.27641 | 17881 ft | 413 kts | 150° |
| 2026-05-06 01:44 | 42.53282 | 12.29627 | 17328 ft | 410 kts | 150° |
| 2026-05-06 01:44 | 42.50858 | 12.31559 | 16770 ft | 407 kts | 150° |
| 2026-05-06 01:44 | 42.48434 | 12.33487 | 16192 ft | 404 kts | 150° |
| 2026-05-06 01:44 | 42.46010 | 12.35414 | 15642 ft | 401 kts | 150° |
| 2026-05-06 01:45 | 42.43612 | 12.37323 | 15081 ft | 399 kts | 150° |
| 2026-05-06 01:45 | 42.41253 | 12.39197 | 14527 ft | 395 kts | 150° |
| 2026-05-06 01:45 | 42.38739 | 12.40702 | 13942 ft | 392 kts | 164° |
| 2026-05-06 01:45 | 42.36071 | 12.41131 | 13497 ft | 385 kts | 181° |
| 2026-05-06 01:46 | 42.33511 | 12.40448 | 13196 ft | 376 kts | 199° |
| 2026-05-06 01:46 | 42.31265 | 12.38702 | 12893 ft | 370 kts | 218° |
| 2026-05-06 01:46 | 42.29495 | 12.36231 | 12623 ft | 362 kts | 227° |
| 2026-05-06 01:46 | 42.27911 | 12.33679 | 12320 ft | 346 kts | 228° |
| 2026-05-06 01:47 | 42.26432 | 12.31231 | 12021 ft | 329 kts | 229° |
| 2026-05-06 01:47 | 42.25042 | 12.28906 | 11722 ft | 314 kts | 229° |
| 2026-05-06 01:47 | 42.23708 | 12.26671 | 11412 ft | 300 kts | 229° |
| 2026-05-06 01:47 | 42.22432 | 12.24525 | 11103 ft | 288 kts | 229° |
| 2026-05-06 01:48 | 42.21055 | 12.22621 | 10791 ft | 279 kts | 210° |
| 2026-05-06 01:48 | 42.19360 | 12.21451 | 10523 ft | 275 kts | 201° |
| 2026-05-06 01:48 | 42.17596 | 12.20488 | 10218 ft | 271 kts | 199° |
| 2026-05-06 01:48 | 42.15854 | 12.19581 | 9914 ft | 268 kts | 199° |
| 2026-05-06 01:49 | 42.14128 | 12.18691 | 9615 ft | 262 kts | 199° |
| 2026-05-06 01:49 | 42.12445 | 12.17825 | 9330 ft | 257 kts | 199° |
| 2026-05-06 01:49 | 42.10891 | 12.17025 | 9166 ft | 247 kts | 199° |
| 2026-05-06 01:49 | 42.09297 | 12.16207 | 8857 ft | 240 kts | 199° |
| 2026-05-06 01:50 | 42.07768 | 12.15427 | 8568 ft | 233 kts | 197° |
| 2026-05-06 01:50 | 42.06215 | 12.15302 | 8263 ft | 222 kts | 167° |
| 2026-05-06 01:50 | 42.04858 | 12.16204 | 7978 ft | 214 kts | 147° |
| 2026-05-06 01:50 | 42.03678 | 12.17342 | 7636 ft | 205 kts | 145° |
| 2026-05-06 01:51 | 42.02502 | 12.18332 | 7250 ft | 193 kts | 153° |
| 2026-05-06 01:51 | 42.01317 | 12.19042 | 6937 ft | 184 kts | 159° |
| 2026-05-06 01:51 | 42.00139 | 12.19618 | 6619 ft | 174 kts | 161° |
| 2026-05-06 01:51 | 41.99027 | 12.20113 | 6345 ft | 163 kts | 162° |
| 2026-05-06 01:52 | 41.97988 | 12.20556 | 6076 ft | 153 kts | 163° |
| 2026-05-06 01:52 | 41.96968 | 12.20928 | 5619 ft | 154 kts | 167° |
| 2026-05-06 01:52 | 41.95901 | 12.21235 | 5027 ft | 162 kts | 167° |
| 2026-05-06 01:52 | 41.94769 | 12.21590 | 4351 ft | 173 kts | 166° |
| 2026-05-06 01:53 | 41.93608 | 12.22003 | 3761 ft | 176 kts | 165° |
| 2026-05-06 01:53 | 41.92432 | 12.22478 | 3209 ft | 177 kts | 161° |
| 2026-05-06 01:53 | 41.91294 | 12.23050 | 2678 ft | 177 kts | 158° |
| 2026-05-06 01:53 | 41.90149 | 12.23677 | 2117 ft | 179 kts | 159° |
| 2026-05-06 01:54 | 41.88974 | 12.24252 | 1582 ft | 179 kts | 161° |
| 2026-05-06 01:54 | 41.87794 | 12.24725 | 1059 ft | 180 kts | 163° |
| 2026-05-06 01:54 | 41.86605 | 12.25238 | 553 ft | 179 kts | 162° |
| 2026-05-06 01:54 | 41.85458 | 12.25761 | 206 ft | 169 kts | 161° |
| 2026-05-06 01:55 | 41.84380 | 12.26220 | 44 ft | 150 kts | 164° |
| 2026-05-06 01:55 | 41.83453 | 12.26610 | 11 ft | 129 kts | 163° |
| 2026-05-06 01:55 | 41.82610 | 12.26955 | 11 ft | 109 kts | 164° |
| 2026-05-06 01:55 | 41.82121 | 12.27129 | 9 ft | 54 kts | 183° |
| 2026-05-06 01:56 | 41.81814 | 12.27070 | 11 ft | 40 kts | 188° |
| 2026-05-06 01:56 | 41.81567 | 12.27107 | 11 ft | 21 kts | 165° |
| 2026-05-06 01:56 | 41.81525 | 12.27121 | 11 ft | 0 kts | 167° |
| 2026-05-06 01:56 | 41.81473 | 12.27138 | 11 ft | 10 kts | 165° |
| 2026-05-06 01:57 | 41.81400 | 12.27165 | 11 ft | 11 kts | 162° |
| 2026-05-06 01:57 | 41.81323 | 12.27197 | 11 ft | 12 kts | 165° |
| 2026-05-06 01:57 | 41.81237 | 12.27224 | 11 ft | 12 kts | 166° |
| 2026-05-06 01:57 | 41.81152 | 12.27266 | 10 ft | 13 kts | 157° |
| 2026-05-06 01:58 | 41.81065 | 12.27309 | 10 ft | 13 kts | 161° |
| 2026-05-06 01:58 | 41.80970 | 12.27344 | 10 ft | 14 kts | 168° |
| 2026-05-06 01:58 | 41.80870 | 12.27345 | 10 ft | 14 kts | 186° |
| 2026-05-06 01:58 | 41.80770 | 12.27321 | 10 ft | 14 kts | 195° |
| 2026-05-06 01:59 | 41.80677 | 12.27261 | 10 ft | 15 kts | 224° |
| 2026-05-06 01:59 | 41.80626 | 12.27139 | 10 ft | 15 kts | 249° |
| 2026-05-06 01:59 | 41.80596 | 12.26999 | 10 ft | 15 kts | 254° |
| 2026-05-06 01:59 | 41.80559 | 12.26858 | 10 ft | 16 kts | 246° |
| 2026-05-06 02:00 | 41.80516 | 12.26721 | 10 ft | 16 kts | 249° |
| 2026-05-06 02:00 | 41.80474 | 12.26582 | 12 ft | 15 kts | 247° |
| 2026-05-06 02:00 | 41.80436 | 12.26455 | 14 ft | 14 kts | 248° |
| 2026-05-06 02:00 | 41.80360 | 12.26376 | 14 ft | 14 kts | 184° |
| 2026-05-06 02:01 | 41.80258 | 12.26404 | 13 ft | 14 kts | 172° |
| 2026-05-06 02:01 | 41.80156 | 12.26428 | 14 ft | 15 kts | 161° |
| 2026-05-06 02:01 | 41.80058 | 12.26478 | 13 ft | 14 kts | 170° |
| 2026-05-06 02:01 | 41.80031 | 12.26383 | 13 ft | 14 kts | 299° |
| 2026-05-06 02:02 | 41.80100 | 12.26290 | 14 ft | 10 kts | 311° |
| 2026-05-06 02:02 | 41.80105 | 12.26281 | 15 ft | 0 kts | 307° |
| 2026-05-06 02:02 | 41.80106 | 12.26281 | 15 ft | 0 kts | 307° |
| 2026-05-06 02:02 | 41.80106 | 12.26280 | 15 ft | 0 kts | 306° |
| 2026-05-06 02:03 | 41.80109 | 12.26271 | 15 ft | 2 kts | 277° |
| 2026-05-06 02:03 | 41.80098 | 12.26251 | 15 ft | 2 kts | 237° |
| 2026-05-06 02:03 | 41.80081 | 12.26225 | 16 ft | 5 kts | 215° |
| 2026-05-06 02:03 | 41.80068 | 12.26215 | 16 ft | 0 kts | 208° |